Aérodrome :
LOGIN :

S'inscrire | Disclaimer

   EN    FR    IT 

 










Légende :    VFR   VFR Marginal   IFR   IFR Intensif   IFR Très Intensif
Visi : 
Plafond : 
>= 8 km
>= 3000ft
5 à 8 km
1000 à 3000 ft
1500m à 5 km
500 à 1000 ft
800 à 1500m
200 à 500 ft
< 800m
< 200 ft
Symboles :   Orages  Brouillard  Fortes neiges  Fortes précipitations  Vent > 20 kt
SIGMETs :   Divers  Orages  Givrage  Turbulence  Onde Orograph.  Cendres Volcan.






- Altitude de l'aérodrome : 779 ft
- Code IATA : CMF


LFLB - Chambery / Aix-Les-Bains

DERNIER METAR :
  • 112230Z AUTO 19008KT 8000 FEW090 OVC210 02/01 Q1011 NOSIG

METARs EXPIRÉS :
  • 112200Z AUTO 20005KT 5000 BR FEW003 OVC200 02/01 Q1012 NOSIG
  • 112130Z AUTO 18006KT CAVOK 02/01 Q1012 NOSIG
  • 112100Z AUTO 19004KT 9000 NSC 03/02 Q1013 NOSIG
  • 112030Z AUTO 18006KT CAVOK 03/02 Q1013 NOSIG
  • 112000Z AUTO VRB03KT CAVOK 03/02 Q1013 NOSIG

TAF TAF LFLB
Valide du 11 à 18h jusqu'au 12 à 18h UTC


111700Z 1118/1218 14005KT 9999 BKN050
TEMPO 1118/1120 -RA
PROB40
TEMPO 1118/1120 4000 RA BKN010
TEMPO 1200/1208 -SHRA BKN020
BECMG 1210/1212 VRB02KT CAVOK
BECMG 1212/1214 20006KT



MET'MAP, la Météo Aéronautique d'un coup d'oeil ! - Copyright ORBIFLY Décembre 2007 - Disclaimer

ORBIFLY MET'MAP TEAM :

Programmation & Développement : Alexandra Zaïnal
Sur une idée originale de : Baudouin d'Aumeries
Assistance à la programmation : Marc-Olivier Méhu
Soutien technique & logistique : Manuel Goepfert

Contact : metmap@orbifly.com




SOURCES & CREDITS :

   NOAA